sensor_id;sensor_type;location;lat;lon;timestamp;temperature;humidity
19692;DHT22;42748;50.016;19.890;2023-01-13T00:00:56;6.40;99.90
19692;DHT22;42748;50.016;19.890;2023-01-13T00:03:24;6.40;99.90
19692;DHT22;42748;50.016;19.890;2023-01-13T00:05:51;6.40;99.90
19692;DHT22;42748;50.016;19.890;2023-01-13T00:08:18;6.40;99.90
19692;DHT22;42748;50.016;19.890;2023-01-13T00:10:46;6.40;99.90
19692;DHT22;42748;50.016;19.890;2023-01-13T00:13:14;6.40;99.90
19692;DHT22;42748;50.016;19.890;2023-01-13T00:15:41;6.50;99.90
19692;DHT22;42748;50.016;19.890;2023-01-13T00:18:09;6.50;99.90
19692;DHT22;42748;50.016;19.890;2023-01-13T00:20:36;6.50;99.90
19692;DHT22;42748;50.016;19.890;2023-01-13T00:23:03;6.50;99.90
19692;DHT22;42748;50.016;19.890;2023-01-13T00:25:30;6.60;99.90
19692;DHT22;42748;50.016;19.890;2023-01-13T00:27:57;6.50;99.90
19692;DHT22;42748;50.016;19.890;2023-01-13T00:30:24;6.50;99.90
19692;DHT22;42748;50.016;19.890;2023-01-13T00:32:52;6.50;99.90
19692;DHT22;42748;50.016;19.890;2023-01-13T00:35:19;6.50;99.90
19692;DHT22;42748;50.016;19.890;2023-01-13T00:37:46;6.50;99.90
19692;DHT22;42748;50.016;19.890;2023-01-13T00:40:14;6.50;99.90
19692;DHT22;42748;50.016;19.890;2023-01-13T00:42:41;6.50;99.90
19692;DHT22;42748;50.016;19.890;2023-01-13T00:45:26;6.50;99.90
19692;DHT22;42748;50.016;19.890;2023-01-13T00:47:53;6.50;99.90
19692;DHT22;42748;50.016;19.890;2023-01-13T00:50:21;6.60;99.90
19692;DHT22;42748;50.016;19.890;2023-01-13T00:52:48;6.60;99.90
19692;DHT22;42748;50.016;19.890;2023-01-13T00:55:15;6.70;99.90
19692;DHT22;42748;50.016;19.890;2023-01-13T00:57:42;6.70;99.90
19692;DHT22;42748;50.016;19.890;2023-01-13T01:00:09;6.60;99.90
19692;DHT22;42748;50.016;19.890;2023-01-13T01:02:37;6.60;99.90
19692;DHT22;42748;50.016;19.890;2023-01-13T01:05:04;6.60;99.90
19692;DHT22;42748;50.016;19.890;2023-01-13T01:07:32;6.60;99.90
19692;DHT22;42748;50.016;19.890;2023-01-13T01:09:59;6.60;99.90
19692;DHT22;42748;50.016;19.890;2023-01-13T01:12:26;6.70;99.90
19692;DHT22;42748;50.016;19.890;2023-01-13T01:14:53;6.70;99.90
19692;DHT22;42748;50.016;19.890;2023-01-13T01:17:20;6.70;99.90
19692;DHT22;42748;50.016;19.890;2023-01-13T01:19:47;6.70;99.90
19692;DHT22;42748;50.016;19.890;2023-01-13T01:22:14;6.70;99.90
19692;DHT22;42748;50.016;19.890;2023-01-13T01:24:41;6.70;99.90
19692;DHT22;42748;50.016;19.890;2023-01-13T01:27:08;6.70;99.90
19692;DHT22;42748;50.016;19.890;2023-01-13T01:29:36;6.60;99.90
19692;DHT22;42748;50.016;19.890;2023-01-13T01:32:03;6.60;99.90
19692;DHT22;42748;50.016;19.890;2023-01-13T01:34:30;6.60;99.90
19692;DHT22;42748;50.016;19.890;2023-01-13T01:36:57;6.60;99.90
19692;DHT22;42748;50.016;19.890;2023-01-13T01:39:25;6.60;99.90
19692;DHT22;42748;50.016;19.890;2023-01-13T01:41:52;6.60;99.90
19692;DHT22;42748;50.016;19.890;2023-01-13T01:47:11;6.50;99.90
19692;DHT22;42748;50.016;19.890;2023-01-13T01:49:40;6.50;99.90
19692;DHT22;42748;50.016;19.890;2023-01-13T01:52:33;6.60;99.90
19692;DHT22;42748;50.016;19.890;2023-01-13T01:55:05;6.50;99.90
19692;DHT22;42748;50.016;19.890;2023-01-13T02:00:22;6.60;99.90
19692;DHT22;42748;50.016;19.890;2023-01-13T02:02:50;6.60;99.90
19692;DHT22;42748;50.016;19.890;2023-01-13T02:05:18;6.70;99.90
19692;DHT22;42748;50.016;19.890;2023-01-13T02:07:47;6.70;99.90
19692;DHT22;42748;50.016;19.890;2023-01-13T02:10:18;6.70;99.90
19692;DHT22;42748;50.016;19.890;2023-01-13T02:12:47;6.70;99.90
19692;DHT22;42748;50.016;19.890;2023-01-13T02:15:24;6.80;99.90
19692;DHT22;42748;50.016;19.890;2023-01-13T02:32:28;6.90;99.90
19692;DHT22;42748;50.016;19.890;2023-01-13T02:35:05;6.90;99.90
19692;DHT22;42748;50.016;19.890;2023-01-13T02:37:36;6.80;99.90
19692;DHT22;42748;50.016;19.890;2023-01-13T02:42:42;6.80;99.90
19692;DHT22;42748;50.016;19.890;2023-01-13T02:45:48;6.90;99.90
19692;DHT22;42748;50.016;19.890;2023-01-13T02:48:18;6.90;99.90
19692;DHT22;42748;50.016;19.890;2023-01-13T02:51:08;6.90;99.90
19692;DHT22;42748;50.016;19.890;2023-01-13T02:53:46;7.00;99.90
19692;DHT22;42748;50.016;19.890;2023-01-13T02:56:17;7.10;99.90
19692;DHT22;42748;50.016;19.890;2023-01-13T02:58:46;7.10;99.90
19692;DHT22;42748;50.016;19.890;2023-01-13T03:01:14;7.10;99.90
19692;DHT22;42748;50.016;19.890;2023-01-13T03:03:42;7.20;99.90
19692;DHT22;42748;50.016;19.890;2023-01-13T03:11:58;7.30;99.90
19692;DHT22;42748;50.016;19.890;2023-01-13T03:17:40;7.40;99.90
19692;DHT22;42748;50.016;19.890;2023-01-13T03:20:46;7.40;99.90
19692;DHT22;42748;50.016;19.890;2023-01-13T03:23:20;7.30;99.90
19692;DHT22;42748;50.016;19.890;2023-01-13T03:25:58;7.30;99.90
19692;DHT22;42748;50.016;19.890;2023-01-13T03:28:32;7.40;99.90
19692;DHT22;42748;50.016;19.890;2023-01-13T03:31:10;7.40;99.90
19692;DHT22;42748;50.016;19.890;2023-01-13T03:34:01;7.30;99.90
19692;DHT22;42748;50.016;19.890;2023-01-13T03:36:30;7.30;99.90
19692;DHT22;42748;50.016;19.890;2023-01-13T03:39:02;7.40;99.90
19692;DHT22;42748;50.016;19.890;2023-01-13T03:41:36;7.40;99.90
19692;DHT22;42748;50.016;19.890;2023-01-13T03:44:13;7.50;99.90
19692;DHT22;42748;50.016;19.890;2023-01-13T03:47:05;7.50;99.90
19692;DHT22;42748;50.016;19.890;2023-01-13T03:52:29;7.60;99.90
19692;DHT22;42748;50.016;19.890;2023-01-13T03:55:07;7.60;99.90
19692;DHT22;42748;50.016;19.890;2023-01-13T03:57:41;7.70;99.90
19692;DHT22;42748;50.016;19.890;2023-01-13T04:00:11;7.70;99.90
19692;DHT22;42748;50.016;19.890;2023-01-13T04:02:55;7.70;99.90
19692;DHT22;42748;50.016;19.890;2023-01-13T04:05:23;7.80;99.90
19692;DHT22;42748;50.016;19.890;2023-01-13T04:07:54;7.80;99.90
19692;DHT22;42748;50.016;19.890;2023-01-13T04:10:30;7.80;99.90
19692;DHT22;42748;50.016;19.890;2023-01-13T04:13:02;7.80;99.90
19692;DHT22;42748;50.016;19.890;2023-01-13T04:15:38;7.80;99.90
19692;DHT22;42748;50.016;19.890;2023-01-13T04:18:09;7.80;99.90
19692;DHT22;42748;50.016;19.890;2023-01-13T04:20:38;7.80;99.90
19692;DHT22;42748;50.016;19.890;2023-01-13T04:23:06;7.80;99.90
19692;DHT22;42748;50.016;19.890;2023-01-13T04:25:33;7.80;99.90
19692;DHT22;42748;50.016;19.890;2023-01-13T04:28:01;7.80;99.90
19692;DHT22;42748;50.016;19.890;2023-01-13T04:30:28;7.80;99.90
19692;DHT22;42748;50.016;19.890;2023-01-13T04:32:55;7.80;99.90
19692;DHT22;42748;50.016;19.890;2023-01-13T04:35:22;7.80;99.90
19692;DHT22;42748;50.016;19.890;2023-01-13T04:37:49;7.70;99.90
19692;DHT22;42748;50.016;19.890;2023-01-13T04:40:16;7.70;99.90
19692;DHT22;42748;50.016;19.890;2023-01-13T04:42:44;7.70;99.90
19692;DHT22;42748;50.016;19.890;2023-01-13T04:45:11;7.70;99.90
19692;DHT22;42748;50.016;19.890;2023-01-13T04:47:39;7.80;99.90
19692;DHT22;42748;50.016;19.890;2023-01-13T04:50:08;7.70;99.90
19692;DHT22;42748;50.016;19.890;2023-01-13T04:52:36;7.70;99.90
19692;DHT22;42748;50.016;19.890;2023-01-13T04:55:04;7.70;99.90
19692;DHT22;42748;50.016;19.890;2023-01-13T04:57:32;7.80;99.90
19692;DHT22;42748;50.016;19.890;2023-01-13T05:00:00;7.80;99.90
19692;DHT22;42748;50.016;19.890;2023-01-13T05:02:27;7.80;99.90
19692;DHT22;42748;50.016;19.890;2023-01-13T05:04:55;7.80;99.90
19692;DHT22;42748;50.016;19.890;2023-01-13T05:07:22;7.80;99.90
19692;DHT22;42748;50.016;19.890;2023-01-13T05:09:49;7.80;99.90
19692;DHT22;42748;50.016;19.890;2023-01-13T05:12:16;7.80;99.90
19692;DHT22;42748;50.016;19.890;2023-01-13T05:15:02;7.80;99.90
19692;DHT22;42748;50.016;19.890;2023-01-13T05:17:49;7.90;99.90
19692;DHT22;42748;50.016;19.890;2023-01-13T05:20:16;7.90;99.90
19692;DHT22;42748;50.016;19.890;2023-01-13T05:22:44;7.90;99.90
19692;DHT22;42748;50.016;19.890;2023-01-13T05:25:29;7.90;99.90
19692;DHT22;42748;50.016;19.890;2023-01-13T05:27:59;8.00;99.90
19692;DHT22;42748;50.016;19.890;2023-01-13T05:30:30;8.00;99.90
19692;DHT22;42748;50.016;19.890;2023-01-13T05:32:58;8.00;99.90
19692;DHT22;42748;50.016;19.890;2023-01-13T05:35:25;8.00;99.90
19692;DHT22;42748;50.016;19.890;2023-01-13T05:37:53;8.00;99.90
19692;DHT22;42748;50.016;19.890;2023-01-13T05:40:21;8.00;99.90
19692;DHT22;42748;50.016;19.890;2023-01-13T05:43:12;8.00;99.90
19692;DHT22;42748;50.016;19.890;2023-01-13T05:45:59;8.10;99.90
19692;DHT22;42748;50.016;19.890;2023-01-13T05:48:31;8.00;99.90
19692;DHT22;42748;50.016;19.890;2023-01-13T05:50:59;8.00;99.90
19692;DHT22;42748;50.016;19.890;2023-01-13T05:53:27;8.00;99.90
19692;DHT22;42748;50.016;19.890;2023-01-13T05:55:54;8.00;99.90
19692;DHT22;42748;50.016;19.890;2023-01-13T05:58:23;8.00;99.90
19692;DHT22;42748;50.016;19.890;2023-01-13T06:00:50;8.00;99.90
19692;DHT22;42748;50.016;19.890;2023-01-13T06:03:18;8.00;99.90
19692;DHT22;42748;50.016;19.890;2023-01-13T06:05:49;7.90;99.90
19692;DHT22;42748;50.016;19.890;2023-01-13T06:08:19;7.90;99.90
19692;DHT22;42748;50.016;19.890;2023-01-13T06:10:46;8.00;99.90
19692;DHT22;42748;50.016;19.890;2023-01-13T06:13:13;8.00;99.90
19692;DHT22;42748;50.016;19.890;2023-01-13T06:15:40;8.00;99.90
19692;DHT22;42748;50.016;19.890;2023-01-13T06:18:07;8.10;99.90
19692;DHT22;42748;50.016;19.890;2023-01-13T06:20:35;8.10;99.90
19692;DHT22;42748;50.016;19.890;2023-01-13T06:23:02;8.10;99.90
19692;DHT22;42748;50.016;19.890;2023-01-13T06:25:45;8.10;99.90
19692;DHT22;42748;50.016;19.890;2023-01-13T06:28:15;8.10;99.90
19692;DHT22;42748;50.016;19.890;2023-01-13T06:30:48;8.10;99.90
19692;DHT22;42748;50.016;19.890;2023-01-13T06:33:23;8.10;99.90
19692;DHT22;42748;50.016;19.890;2023-01-13T06:35:59;8.10;99.90
19692;DHT22;42748;50.016;19.890;2023-01-13T06:38:29;8.10;99.90
19692;DHT22;42748;50.016;19.890;2023-01-13T06:40:59;8.10;99.90
19692;DHT22;42748;50.016;19.890;2023-01-13T06:43:26;8.10;99.90
19692;DHT22;42748;50.016;19.890;2023-01-13T06:45:54;8.10;99.90
19692;DHT22;42748;50.016;19.890;2023-01-13T06:48:24;8.10;99.90
19692;DHT22;42748;50.016;19.890;2023-01-13T06:50:53;8.10;99.90
19692;DHT22;42748;50.016;19.890;2023-01-13T06:53:20;8.10;99.90
19692;DHT22;42748;50.016;19.890;2023-01-13T06:55:47;8.20;99.90
19692;DHT22;42748;50.016;19.890;2023-01-13T06:58:15;8.20;99.90
19692;DHT22;42748;50.016;19.890;2023-01-13T07:00:42;8.20;99.90
19692;DHT22;42748;50.016;19.890;2023-01-13T07:03:12;8.20;99.90
19692;DHT22;42748;50.016;19.890;2023-01-13T07:05:41;8.20;99.90
19692;DHT22;42748;50.016;19.890;2023-01-13T07:08:09;8.20;99.90
19692;DHT22;42748;50.016;19.890;2023-01-13T07:10:37;8.20;99.90
19692;DHT22;42748;50.016;19.890;2023-01-13T07:13:05;8.20;99.90
19692;DHT22;42748;50.016;19.890;2023-01-13T07:15:54;8.30;99.90
19692;DHT22;42748;50.016;19.890;2023-01-13T07:18:22;8.30;99.90
19692;DHT22;42748;50.016;19.890;2023-01-13T07:21:09;8.30;99.90
19692;DHT22;42748;50.016;19.890;2023-01-13T07:23:40;8.40;99.90
19692;DHT22;42748;50.016;19.890;2023-01-13T07:26:08;8.40;99.90
19692;DHT22;42748;50.016;19.890;2023-01-13T07:28:36;8.40;99.90
19692;DHT22;42748;50.016;19.890;2023-01-13T07:31:04;8.50;99.90
19692;DHT22;42748;50.016;19.890;2023-01-13T07:33:31;8.40;99.90
19692;DHT22;42748;50.016;19.890;2023-01-13T07:36:02;8.50;99.90
19692;DHT22;42748;50.016;19.890;2023-01-13T07:38:30;8.50;99.90
19692;DHT22;42748;50.016;19.890;2023-01-13T07:40:58;8.60;99.90
19692;DHT22;42748;50.016;19.890;2023-01-13T07:43:45;8.60;99.90
19692;DHT22;42748;50.016;19.890;2023-01-13T07:46:12;8.60;99.90
19692;DHT22;42748;50.016;19.890;2023-01-13T07:48:39;8.70;99.90
19692;DHT22;42748;50.016;19.890;2023-01-13T07:51:08;8.70;99.90
19692;DHT22;42748;50.016;19.890;2023-01-13T07:53:36;8.80;99.90
19692;DHT22;42748;50.016;19.890;2023-01-13T07:56:05;8.80;99.90
19692;DHT22;42748;50.016;19.890;2023-01-13T07:58:34;8.80;99.90
19692;DHT22;42748;50.016;19.890;2023-01-13T08:01:08;8.80;99.90
19692;DHT22;42748;50.016;19.890;2023-01-13T08:03:36;8.80;99.90
19692;DHT22;42748;50.016;19.890;2023-01-13T08:06:08;8.90;99.90
19692;DHT22;42748;50.016;19.890;2023-01-13T08:08:36;8.90;99.90
19692;DHT22;42748;50.016;19.890;2023-01-13T08:11:05;8.90;99.90
19692;DHT22;42748;50.016;19.890;2023-01-13T08:13:32;8.90;99.90
19692;DHT22;42748;50.016;19.890;2023-01-13T08:16:05;9.00;99.90
19692;DHT22;42748;50.016;19.890;2023-01-13T08:18:34;9.10;99.90
19692;DHT22;42748;50.016;19.890;2023-01-13T08:21:07;9.20;99.90
19692;DHT22;42748;50.016;19.890;2023-01-13T08:23:34;9.20;99.90
19692;DHT22;42748;50.016;19.890;2023-01-13T08:26:04;9.20;99.90
19692;DHT22;42748;50.016;19.890;2023-01-13T08:28:33;9.30;99.90
19692;DHT22;42748;50.016;19.890;2023-01-13T08:31:02;9.30;99.90
19692;DHT22;42748;50.016;19.890;2023-01-13T08:33:30;9.40;99.90
19692;DHT22;42748;50.016;19.890;2023-01-13T08:36:02;9.50;99.90
19692;DHT22;42748;50.016;19.890;2023-01-13T08:38:30;9.50;99.90
19692;DHT22;42748;50.016;19.890;2023-01-13T08:40:58;9.50;99.90
19692;DHT22;42748;50.016;19.890;2023-01-13T08:43:25;9.60;99.90
19692;DHT22;42748;50.016;19.890;2023-01-13T08:46:00;9.60;99.90
19692;DHT22;42748;50.016;19.890;2023-01-13T08:48:30;9.70;99.90
19692;DHT22;42748;50.016;19.890;2023-01-13T08:51:05;9.80;99.90
19692;DHT22;42748;50.016;19.890;2023-01-13T08:53:33;9.70;99.90
19692;DHT22;42748;50.016;19.890;2023-01-13T08:56:00;9.80;99.90
19692;DHT22;42748;50.016;19.890;2023-01-13T08:58:27;9.90;99.90
19692;DHT22;42748;50.016;19.890;2023-01-13T09:00:54;10.00;99.90
19692;DHT22;42748;50.016;19.890;2023-01-13T09:03:22;10.00;99.90
19692;DHT22;42748;50.016;19.890;2023-01-13T09:05:49;10.10;99.90
19692;DHT22;42748;50.016;19.890;2023-01-13T09:08:16;10.30;99.90
19692;DHT22;42748;50.016;19.890;2023-01-13T09:10:43;10.40;99.90
19692;DHT22;42748;50.016;19.890;2023-01-13T09:13:11;10.50;99.90
19692;DHT22;42748;50.016;19.890;2023-01-13T09:15:41;10.60;99.90
19692;DHT22;42748;50.016;19.890;2023-01-13T09:18:10;10.80;99.90
19692;DHT22;42748;50.016;19.890;2023-01-13T09:20:38;11.20;99.90
19692;DHT22;42748;50.016;19.890;2023-01-13T09:23:05;11.80;99.90
19692;DHT22;42748;50.016;19.890;2023-01-13T09:25:36;12.20;99.90
19692;DHT22;42748;50.016;19.890;2023-01-13T09:28:03;12.20;99.90
19692;DHT22;42748;50.016;19.890;2023-01-13T09:30:31;12.00;99.90
19692;DHT22;42748;50.016;19.890;2023-01-13T09:32:58;11.90;99.90
19692;DHT22;42748;50.016;19.890;2023-01-13T09:35:44;11.60;99.90
19692;DHT22;42748;50.016;19.890;2023-01-13T09:38:11;11.30;99.90
19692;DHT22;42748;50.016;19.890;2023-01-13T09:40:39;11.00;99.90
19692;DHT22;42748;50.016;19.890;2023-01-13T09:46:11;10.80;99.90
19692;DHT22;42748;50.016;19.890;2023-01-13T09:49:00;10.80;99.90
19692;DHT22;42748;50.016;19.890;2023-01-13T09:51:35;10.90;99.90
19692;DHT22;42748;50.016;19.890;2023-01-13T09:56:54;11.00;99.90
19692;DHT22;42748;50.016;19.890;2023-01-13T09:59:21;11.00;99.90
19692;DHT22;42748;50.016;19.890;2023-01-13T10:04:42;11.40;99.90
19692;DHT22;42748;50.016;19.890;2023-01-13T10:07:13;11.40;99.90
19692;DHT22;42748;50.016;19.890;2023-01-13T10:09:51;11.40;99.90
19692;DHT22;42748;50.016;19.890;2023-01-13T10:12:24;11.30;99.90
19692;DHT22;42748;50.016;19.890;2023-01-13T10:15:15;11.60;99.90
19692;DHT22;42748;50.016;19.890;2023-01-13T10:18:12;11.50;99.90
19692;DHT22;42748;50.016;19.890;2023-01-13T10:20:51;11.50;99.90
19692;DHT22;42748;50.016;19.890;2023-01-13T10:29:21;11.60;99.90
19692;DHT22;42748;50.016;19.890;2023-01-13T10:31:52;11.60;99.90
19692;DHT22;42748;50.016;19.890;2023-01-13T10:34:20;11.60;99.90
19692;DHT22;42748;50.016;19.890;2023-01-13T10:36:55;11.70;99.90
19692;DHT22;42748;50.016;19.890;2023-01-13T10:39:38;11.80;99.90
19692;DHT22;42748;50.016;19.890;2023-01-13T10:42:14;12.10;99.90
19692;DHT22;42748;50.016;19.890;2023-01-13T10:44:56;12.20;99.90
19692;DHT22;42748;50.016;19.890;2023-01-13T10:47:34;12.10;99.90
19692;DHT22;42748;50.016;19.890;2023-01-13T10:52:38;11.90;99.90
19692;DHT22;42748;50.016;19.890;2023-01-13T10:55:27;11.80;99.90
19692;DHT22;42748;50.016;19.890;2023-01-13T10:57:56;11.80;99.90
19692;DHT22;42748;50.016;19.890;2023-01-13T11:00:32;12.00;99.90
19692;DHT22;42748;50.016;19.890;2023-01-13T11:03:20;12.00;99.90
19692;DHT22;42748;50.016;19.890;2023-01-13T11:05:58;12.00;99.90
19692;DHT22;42748;50.016;19.890;2023-01-13T11:08:29;12.10;99.90
19692;DHT22;42748;50.016;19.890;2023-01-13T11:10:58;12.00;99.90
19692;DHT22;42748;50.016;19.890;2023-01-13T11:13:45;11.90;99.90
19692;DHT22;42748;50.016;19.890;2023-01-13T11:16:36;12.00;99.90
19692;DHT22;42748;50.016;19.890;2023-01-13T11:19:20;11.90;99.90
19692;DHT22;42748;50.016;19.890;2023-01-13T11:22:16;11.80;99.90
19692;DHT22;42748;50.016;19.890;2023-01-13T11:24:53;11.80;99.90
19692;DHT22;42748;50.016;19.890;2023-01-13T11:27:39;11.70;99.90
19692;DHT22;42748;50.016;19.890;2023-01-13T11:35:50;11.70;99.90
19692;DHT22;42748;50.016;19.890;2023-01-13T11:38:26;11.70;99.90
19692;DHT22;42748;50.016;19.890;2023-01-13T11:41:05;11.70;99.90
19692;DHT22;42748;50.016;19.890;2023-01-13T11:43:42;11.70;99.90
19692;DHT22;42748;50.016;19.890;2023-01-13T11:46:13;11.80;99.90
19692;DHT22;42748;50.016;19.890;2023-01-13T11:48:41;11.80;99.90
19692;DHT22;42748;50.016;19.890;2023-01-13T11:59:11;11.70;99.90
19692;DHT22;42748;50.016;19.890;2023-01-13T12:02:10;11.80;99.90
19692;DHT22;42748;50.016;19.890;2023-01-13T12:07:51;11.80;99.90
19692;DHT22;42748;50.016;19.890;2023-01-13T12:10:52;11.80;99.90
19692;DHT22;42748;50.016;19.890;2023-01-13T12:13:28;11.80;99.90
19692;DHT22;42748;50.016;19.890;2023-01-13T12:16:14;11.90;99.90
19692;DHT22;42748;50.016;19.890;2023-01-13T12:21:53;11.80;99.90
19692;DHT22;42748;50.016;19.890;2023-01-13T12:24:30;11.80;99.90
19692;DHT22;42748;50.016;19.890;2023-01-13T12:29:40;11.60;99.90
19692;DHT22;42748;50.016;19.890;2023-01-13T12:32:15;11.70;99.90
19692;DHT22;42748;50.016;19.890;2023-01-13T12:37:34;11.60;99.90
19692;DHT22;42748;50.016;19.890;2023-01-13T12:46:32;11.70;99.90
19692;DHT22;42748;50.016;19.890;2023-01-13T12:54:00;11.60;99.90
19692;DHT22;42748;50.016;19.890;2023-01-13T12:56:43;11.50;99.90
19692;DHT22;42748;50.016;19.890;2023-01-13T13:02:32;11.50;99.90
19692;DHT22;42748;50.016;19.890;2023-01-13T13:04:49;11.50;99.90
19692;DHT22;42748;50.016;19.890;2023-01-13T13:08:06;11.50;99.90
19692;DHT22;42748;50.016;19.890;2023-01-13T13:13:00;11.40;99.90
19692;DHT22;42748;50.016;19.890;2023-01-13T13:15:50;11.40;99.90
19692;DHT22;42748;50.016;19.890;2023-01-13T13:21:05;11.40;99.90
19692;DHT22;42748;50.016;19.890;2023-01-13T13:23:44;11.40;99.90
19692;DHT22;42748;50.016;19.890;2023-01-13T13:37:55;11.40;99.90
19692;DHT22;42748;50.016;19.890;2023-01-13T13:40:45;11.30;99.90
19692;DHT22;42748;50.016;19.890;2023-01-13T13:43:39;11.30;99.90
19692;DHT22;42748;50.016;19.890;2023-01-13T13:46:30;11.30;99.90
19692;DHT22;42748;50.016;19.890;2023-01-13T13:49:33;11.30;99.90
19692;DHT22;42748;50.016;19.890;2023-01-13T13:52:54;11.30;99.90
19692;DHT22;42748;50.016;19.890;2023-01-13T13:55:01;11.30;99.90
19692;DHT22;42748;50.016;19.890;2023-01-13T13:57:36;11.20;99.90
19692;DHT22;42748;50.016;19.890;2023-01-13T14:02:56;11.20;99.90
19692;DHT22;42748;50.016;19.890;2023-01-13T14:05:35;11.20;99.90
19692;DHT22;42748;50.016;19.890;2023-01-13T14:08:13;11.10;99.90
19692;DHT22;42748;50.016;19.890;2023-01-13T14:10:42;11.10;99.90
19692;DHT22;42748;50.016;19.890;2023-01-13T14:16:17;11.00;99.90
19692;DHT22;42748;50.016;19.890;2023-01-13T14:18:45;11.00;99.90
19692;DHT22;42748;50.016;19.890;2023-01-13T14:21:17;11.00;99.90
19692;DHT22;42748;50.016;19.890;2023-01-13T14:24:00;10.90;99.90
19692;DHT22;42748;50.016;19.890;2023-01-13T14:26:30;10.90;99.90
19692;DHT22;42748;50.016;19.890;2023-01-13T14:28:59;11.00;99.90
19692;DHT22;42748;50.016;19.890;2023-01-13T14:31:27;10.90;99.90
19692;DHT22;42748;50.016;19.890;2023-01-13T14:33:57;10.90;99.90
19692;DHT22;42748;50.016;19.890;2023-01-13T14:44:30;10.80;99.90
19692;DHT22;42748;50.016;19.890;2023-01-13T14:47:01;10.80;99.90
19692;DHT22;42748;50.016;19.890;2023-01-13T14:52:19;10.70;99.90
19692;DHT22;42748;50.016;19.890;2023-01-13T14:55:08;10.70;99.90
19692;DHT22;42748;50.016;19.890;2023-01-13T14:57:39;10.70;99.90
19692;DHT22;42748;50.016;19.890;2023-01-13T15:10:55;10.60;99.90
19692;DHT22;42748;50.016;19.890;2023-01-13T15:16:17;10.60;99.90
19692;DHT22;42748;50.016;19.890;2023-01-13T15:18:45;10.60;99.90
19692;DHT22;42748;50.016;19.890;2023-01-13T15:21:12;10.50;99.90
19692;DHT22;42748;50.016;19.890;2023-01-13T15:23:42;10.50;99.90
19692;DHT22;42748;50.016;19.890;2023-01-13T15:28:44;10.50;99.90
19692;DHT22;42748;50.016;19.890;2023-01-13T15:31:12;10.40;99.90
19692;DHT22;42748;50.016;19.890;2023-01-13T15:33:39;10.40;99.90
19692;DHT22;42748;50.016;19.890;2023-01-13T15:38:47;10.40;99.90
19692;DHT22;42748;50.016;19.890;2023-01-13T15:41:15;10.40;99.90
19692;DHT22;42748;50.016;19.890;2023-01-13T15:43:42;10.40;99.90
19692;DHT22;42748;50.016;19.890;2023-01-13T15:46:28;10.40;99.90
19692;DHT22;42748;50.016;19.890;2023-01-13T15:49:10;10.30;99.90
19692;DHT22;42748;50.016;19.890;2023-01-13T15:51:40;10.30;99.90
19692;DHT22;42748;50.016;19.890;2023-01-13T15:54:07;10.30;99.90
19692;DHT22;42748;50.016;19.890;2023-01-13T15:56:35;10.30;99.90
19692;DHT22;42748;50.016;19.890;2023-01-13T15:59:04;10.40;99.90
19692;DHT22;42748;50.016;19.890;2023-01-13T16:01:36;10.30;99.90
19692;DHT22;42748;50.016;19.890;2023-01-13T16:04:03;10.30;99.90
19692;DHT22;42748;50.016;19.890;2023-01-13T16:06:30;10.30;99.90
19692;DHT22;42748;50.016;19.890;2023-01-13T16:09:03;10.30;99.90
19692;DHT22;42748;50.016;19.890;2023-01-13T16:11:30;10.30;99.90
19692;DHT22;42748;50.016;19.890;2023-01-13T16:13:57;10.30;99.90
19692;DHT22;42748;50.016;19.890;2023-01-13T16:16:26;10.30;99.90
19692;DHT22;42748;50.016;19.890;2023-01-13T16:18:54;10.30;99.90
19692;DHT22;42748;50.016;19.890;2023-01-13T16:21:22;10.30;99.90
19692;DHT22;42748;50.016;19.890;2023-01-13T16:23:50;10.30;99.90
19692;DHT22;42748;50.016;19.890;2023-01-13T16:26:21;10.20;99.90
19692;DHT22;42748;50.016;19.890;2023-01-13T16:28:51;10.20;99.90
19692;DHT22;42748;50.016;19.890;2023-01-13T16:31:23;10.20;99.90
19692;DHT22;42748;50.016;19.890;2023-01-13T16:33:51;10.10;99.90
19692;DHT22;42748;50.016;19.890;2023-01-13T16:36:19;10.10;99.90
19692;DHT22;42748;50.016;19.890;2023-01-13T16:38:48;10.10;99.90
19692;DHT22;42748;50.016;19.890;2023-01-13T16:41:15;10.10;99.90
19692;DHT22;42748;50.016;19.890;2023-01-13T16:43:42;10.10;99.90
19692;DHT22;42748;50.016;19.890;2023-01-13T16:46:22;10.00;99.90
19692;DHT22;42748;50.016;19.890;2023-01-13T16:48:51;10.00;99.90
19692;DHT22;42748;50.016;19.890;2023-01-13T16:51:19;10.00;99.90
19692;DHT22;42748;50.016;19.890;2023-01-13T16:53:47;10.00;99.90
19692;DHT22;42748;50.016;19.890;2023-01-13T16:56:21;10.00;99.90
19692;DHT22;42748;50.016;19.890;2023-01-13T16:58:51;10.00;99.90
19692;DHT22;42748;50.016;19.890;2023-01-13T17:01:25;10.00;99.90
19692;DHT22;42748;50.016;19.890;2023-01-13T17:03:53;9.90;99.90
19692;DHT22;42748;50.016;19.890;2023-01-13T17:08:50;9.80;99.90
19692;DHT22;42748;50.016;19.890;2023-01-13T17:11:19;9.80;99.90
19692;DHT22;42748;50.016;19.890;2023-01-13T17:13:47;9.80;99.90
19692;DHT22;42748;50.016;19.890;2023-01-13T17:16:17;9.70;99.90
19692;DHT22;42748;50.016;19.890;2023-01-13T17:18:44;9.70;99.90
19692;DHT22;42748;50.016;19.890;2023-01-13T17:21:14;9.70;99.90
19692;DHT22;42748;50.016;19.890;2023-01-13T17:23:41;9.70;99.90
19692;DHT22;42748;50.016;19.890;2023-01-13T17:26:33;9.70;99.90
19692;DHT22;42748;50.016;19.890;2023-01-13T17:29:05;9.70;99.90
19692;DHT22;42748;50.016;19.890;2023-01-13T17:31:34;9.60;99.90
19692;DHT22;42748;50.016;19.890;2023-01-13T17:34:02;9.60;99.90
19692;DHT22;42748;50.016;19.890;2023-01-13T17:36:30;9.60;99.90
19692;DHT22;42748;50.016;19.890;2023-01-13T17:39:00;9.60;99.90
19692;DHT22;42748;50.016;19.890;2023-01-13T17:41:27;9.60;99.90
19692;DHT22;42748;50.016;19.890;2023-01-13T17:43:54;9.60;99.90
19692;DHT22;42748;50.016;19.890;2023-01-13T17:46:22;9.50;99.90
19692;DHT22;42748;50.016;19.890;2023-01-13T17:48:50;9.50;99.90
19692;DHT22;42748;50.016;19.890;2023-01-13T17:51:20;9.50;99.90
19692;DHT22;42748;50.016;19.890;2023-01-13T17:53:48;9.50;99.90
19692;DHT22;42748;50.016;19.890;2023-01-13T17:56:15;9.50;99.90
19692;DHT22;42748;50.016;19.890;2023-01-13T17:58:44;9.50;99.90
19692;DHT22;42748;50.016;19.890;2023-01-13T18:01:17;9.50;99.90
19692;DHT22;42748;50.016;19.890;2023-01-13T18:03:45;9.50;99.90
19692;DHT22;42748;50.016;19.890;2023-01-13T18:06:18;9.50;99.90
19692;DHT22;42748;50.016;19.890;2023-01-13T18:08:47;9.40;99.90
19692;DHT22;42748;50.016;19.890;2023-01-13T18:11:15;9.40;99.90
19692;DHT22;42748;50.016;19.890;2023-01-13T18:13:47;9.40;99.90
19692;DHT22;42748;50.016;19.890;2023-01-13T18:16:18;9.50;99.90
19692;DHT22;42748;50.016;19.890;2023-01-13T18:18:47;9.50;99.90
19692;DHT22;42748;50.016;19.890;2023-01-13T18:21:21;9.40;99.90